Time;durP1;ratioP1;P1;durP2;ratioP2;P2;SDS_P1;SDS_P2;PMS_P1;PMS_P2;Temp;Humidity;BMP_temperature;BMP_pressure;BME280_temperature;BME280_humidity;BME280_pressure;Samples;Min_cycle;Max_cycle;Signal;HPM_P1;HPM_P2
2022/03/02 00:02:30;;;;;;;9.83;6.00;;;6.50;99.90;;;;;;1904607;75;21123;-85
2022/03/02 00:05:24;;;;;;;12.82;6.40;;;6.50;99.90;;;;;;1905396;75;21070;-84
2022/03/02 00:08:15;;;;;;;10.63;6.10;;;6.50;99.90;;;;;;1901403;75;21561;-84
2022/03/02 00:11:07;;;;;;;10.38;5.97;;;6.40;99.90;;;;;;1894974;75;21201;-84
2022/03/02 00:14:09;;;;;;;8.88;5.75;;;6.40;99.90;;;;;;1848428;77;21084;-84
2022/03/02 00:19:44;;;;;;;11.28;6.25;;;6.30;99.90;;;;;;1950795;72;22159;-85
2022/03/02 00:22:55;;;;;;;8.68;6.35;;;6.40;99.90;;;;;;1905620;75;21060;-83
2022/03/02 00:25:46;;;;;;;11.90;6.28;;;6.30;99.90;;;;;;1895791;73;21511;-84
2022/03/02 00:31:22;;;;;;;9.15;6.53;;;6.20;99.90;;;;;;1948253;72;22208;-85
2022/03/02 00:34:32;;;;;;;10.78;7.00;;;6.20;99.90;;;;;;1910448;74;21091;-84
2022/03/02 00:37:24;;;;;;;13.13;8.18;;;6.20;99.90;;;;;;1933425;74;21079;-84
2022/03/02 00:40:16;;;;;;;15.65;11.03;;;6.20;99.90;;;;;;1905370;75;21199;-84
2022/03/02 00:43:09;;;;;;;21.85;16.57;;;6.10;99.90;;;;;;1917199;74;21059;-85
2022/03/02 00:46:00;;;;;;;19.75;14.68;;;6.10;99.90;;;;;;1938900;74;21207;-84
2022/03/02 00:49:03;;;;;;;22.07;13.22;;;6.00;99.90;;;;;;1938446;74;21127;-84
2022/03/02 00:54:34;;;;;;;11.50;8.33;;;5.80;99.90;;;;;;1961939;72;22162;-85
2022/03/02 00:57:54;;;;;;;12.78;8.50;;;5.80;99.90;;;;;;1914759;73;21042;-85
2022/03/02 01:00:46;;;;;;;15.18;10.60;;;5.80;99.90;;;;;;1905940;74;21137;-85
2022/03/02 01:03:37;;;;;;;11.83;7.47;;;5.70;99.90;;;;;;1867640;77;21145;-85
2022/03/02 01:06:40;;;;;;;14.63;7.47;;;5.60;99.90;;;;;;1923555;74;21055;-85
2022/03/02 01:09:38;;;;;;;10.80;6.92;;;5.50;99.90;;;;;;1907590;74;21071;-85
2022/03/02 01:15:10;;;;;;;10.38;7.28;;;5.50;99.90;;;;;;1936064;72;22194;-85
2022/03/02 01:18:20;;;;;;;12.05;6.62;;;5.50;99.90;;;;;;1881056;75;21172;-84
2022/03/02 01:21:22;;;;;;;13.55;7.25;;;5.50;99.90;;;;;;1873221;76;21064;-85
2022/03/02 01:24:14;;;;;;;14.33;7.20;;;5.50;99.90;;;;;;1883580;75;21150;-84
2022/03/02 01:29:46;;;;;;;10.98;6.97;;;5.30;99.90;;;;;;1946602;72;22142;-85
2022/03/02 01:33:06;;;;;;;8.93;5.78;;;5.30;99.90;;;;;;1918556;73;21106;-84
2022/03/02 01:35:58;;;;;;;9.65;6.45;;;5.30;99.90;;;;;;1917740;75;21097;-84
2022/03/02 01:38:49;;;;;;;10.48;6.90;;;5.30;99.90;;;;;;1923725;73;21048;-84
2022/03/02 01:41:41;;;;;;;9.48;6.70;;;5.30;99.90;;;;;;1917664;75;21094;-84
2022/03/02 01:47:12;;;;;;;10.00;5.97;;;5.10;99.90;;;;;;1958114;72;22238;-85
2022/03/02 01:50:23;;;;;;;8.50;5.75;;;5.10;99.90;;;;;;1905694;75;21052;-84
2022/03/02 01:53:15;;;;;;;10.20;5.30;;;5.10;99.90;;;;;;1889341;75;21125;-84
2022/03/02 01:56:06;;;;;;;10.20;5.83;;;5.00;99.90;;;;;;1882504;75;21099;-85
2022/03/02 01:58:58;;;;;;;9.90;5.55;;;5.00;99.90;;;;;;1894826;75;21146;-85
2022/03/02 02:02:00;;;;;;;9.63;5.80;;;5.10;99.90;;;;;;1872952;75;21202;-85
2022/03/02 02:04:53;;;;;;;10.23;5.50;;;5.20;99.90;;;;;;1892008;75;21140;-84
2022/03/02 02:10:27;;;;;;;9.83;6.20;;;5.30;99.90;;;;;;1968336;72;22249;-86
2022/03/02 02:13:38;;;;;;;9.63;5.95;;;5.30;99.90;;;;;;1913682;74;21129;-84
2022/03/02 02:16:30;;;;;;;11.25;6.35;;;5.30;99.90;;;;;;1907519;74;21133;-84
2022/03/02 02:19:21;;;;;;;8.65;5.90;;;5.30;99.90;;;;;;1906207;74;21113;-84
2022/03/02 02:24:57;;;;;;;10.75;6.92;;;5.30;99.90;;;;;;1952537;72;22146;-85
2022/03/02 02:30:58;;;;;;;10.55;7.00;;;5.30;99.90;;;;;;1953466;72;22107;-85
2022/03/02 02:34:08;;;;;;;10.40;7.45;;;5.30;99.90;;;;;;1913954;74;21023;-85
2022/03/02 02:39:40;;;;;;;10.90;7.70;;;5.20;99.90;;;;;;1929384;72;22233;-85
2022/03/02 02:42:50;;;;;;;13.15;7.90;;;5.20;99.90;;;;;;1879764;75;21032;-84
2022/03/02 02:45:41;;;;;;;13.15;8.90;;;5.20;99.90;;;;;;1894544;75;21056;-84
2022/03/02 02:48:33;;;;;;;12.85;8.30;;;5.20;99.90;;;;;;1891029;75;21151;-83
2022/03/02 02:51:24;;;;;;;14.98;9.55;;;5.20;99.90;;;;;;1892063;75;21096;-85
2022/03/02 02:54:16;;;;;;;15.85;10.50;;;5.20;99.90;;;;;;1896804;75;21048;-86
2022/03/02 02:59:46;;;;;;;17.80;13.20;;;5.10;99.90;;;;;;1940880;72;22634;-86
2022/03/02 03:02:57;;;;;;;22.87;17.02;;;5.20;99.90;;;;;;1884762;76;21094;-85
2022/03/02 03:05:51;;;;;;;24.63;18.52;;;5.10;99.90;;;;;;1895244;75;21098;-84
2022/03/02 03:08:42;;;;;;;25.75;20.48;;;5.00;99.90;;;;;;1896029;75;21590;-85
2022/03/02 03:11:34;;;;;;;26.97;20.37;;;4.90;99.90;;;;;;1895699;75;21102;-85
2022/03/02 03:14:25;;;;;;;24.63;19.20;;;4.80;99.90;;;;;;1912648;75;21050;-85
2022/03/02 03:17:17;;;;;;;25.02;18.50;;;4.70;99.90;;;;;;1897703;75;21055;-84
2022/03/02 03:20:14;;;;;;;23.83;18.60;;;4.70;99.90;;;;;;1907057;75;21055;-85
2022/03/02 03:23:07;;;;;;;22.00;18.73;;;4.60;99.90;;;;;;1888085;75;21078;-84
2022/03/02 03:25:58;;;;;;;22.32;18.12;;;4.70;99.90;;;;;;1897149;75;21386;-84
2022/03/02 03:28:50;;;;;;;25.50;19.07;;;4.70;99.90;;;;;;1917175;73;21156;-84
2022/03/02 03:31:42;;;;;;;25.92;19.65;;;4.70;99.90;;;;;;1917535;75;21119;-84
2022/03/02 03:34:33;;;;;;;27.77;21.70;;;4.70;99.90;;;;;;1906988;75;21071;-84
2022/03/02 03:40:06;;;;;;;26.77;20.77;;;4.70;99.90;;;;;;1956714;72;22190;-85
2022/03/02 03:43:16;;;;;;;21.97;18.80;;;4.70;99.90;;;;;;1906938;74;21143;-84
2022/03/02 03:46:08;;;;;;;24.47;18.55;;;4.60;99.90;;;;;;1927304;74;21173;-84
2022/03/02 03:48:59;;;;;;;23.22;17.95;;;4.60;99.90;;;;;;1863253;76;21135;-85
2022/03/02 03:51:51;;;;;;;21.48;17.42;;;4.60;99.90;;;;;;1854560;77;21087;-84
2022/03/02 03:54:42;;;;;;;24.35;17.62;;;4.60;99.90;;;;;;1899926;75;21056;-84
2022/03/02 03:57:34;;;;;;;24.07;18.00;;;4.50;99.90;;;;;;1929187;73;21149;-85
2022/03/02 04:00:26;;;;;;;23.05;16.23;;;4.50;99.90;;;;;;1923088;74;21090;-84
2022/03/02 04:05:56;;;;;;;21.50;14.93;;;4.50;99.90;;;;;;1938890;72;22240;-85
2022/03/02 04:09:06;;;;;;;17.07;12.33;;;4.50;99.90;;;;;;1905584;75;21129;-84
2022/03/02 04:11:58;;;;;;;15.55;10.93;;;4.50;99.90;;;;;;1898277;75;21224;-84
2022/03/02 04:14:49;;;;;;;14.47;9.80;;;4.50;99.90;;;;;;1894871;75;21096;-84
2022/03/02 04:17:41;;;;;;;16.77;10.58;;;4.40;99.90;;;;;;1891470;75;21095;-84
2022/03/02 04:20:32;;;;;;;14.03;10.08;;;4.40;99.90;;;;;;1886176;75;21118;-84
2022/03/02 04:26:07;;;;;;;14.07;10.15;;;4.40;99.90;;;;;;1954207;72;22170;-85
2022/03/02 04:29:18;;;;;;;15.72;10.98;;;4.40;99.90;;;;;;1886817;73;21047;-84
2022/03/02 04:34:48;;;;;;;15.23;10.82;;;4.30;99.90;;;;;;1947346;72;22806;-85
2022/03/02 04:38:00;;;;;;;17.42;11.28;;;4.30;99.90;;;;;;1847776;76;21106;-85
2022/03/02 04:40:52;;;;;;;16.25;10.82;;;4.20;99.90;;;;;;1913724;74;21067;-85
2022/03/02 04:43:45;;;;;;;15.20;10.48;;;4.20;99.90;;;;;;1905359;75;21165;-85
2022/03/02 04:46:37;;;;;;;17.25;9.73;;;4.30;99.90;;;;;;1905343;75;21160;-85
2022/03/02 04:49:30;;;;;;;14.05;9.70;;;4.20;99.90;;;;;;1905153;74;21106;-85
2022/03/02 04:52:22;;;;;;;17.35;10.58;;;4.20;99.90;;;;;;1905340;75;21051;-85
2022/03/02 04:57:55;;;;;;;16.85;9.85;;;4.00;99.90;;;;;;1962972;72;22215;-85
2022/03/02 05:01:05;;;;;;;13.00;9.48;;;4.00;99.90;;;;;;1905351;75;21084;-85
2022/03/02 05:03:57;;;;;;;11.25;7.80;;;3.90;99.90;;;;;;1925662;74;21103;-85
2022/03/02 05:06:49;;;;;;;11.83;8.00;;;3.80;99.90;;;;;;1905309;75;21064;-84
2022/03/02 05:09:41;;;;;;;15.63;10.18;;;3.80;99.90;;;;;;1905546;75;21044;-84
2022/03/02 05:15:13;;;;;;;15.03;9.73;;;3.80;99.90;;;;;;1969587;72;22149;-84
2022/03/02 05:18:24;;;;;;;16.87;10.05;;;3.80;99.90;;;;;;1905266;75;21048;-84
2022/03/02 05:21:16;;;;;;;15.78;9.43;;;3.80;99.90;;;;;;1905423;75;21186;-83
2022/03/02 05:24:09;;;;;;;14.78;10.00;;;3.80;99.90;;;;;;1912430;74;21184;-83
2022/03/02 05:27:00;;;;;;;14.13;9.88;;;3.80;99.90;;;;;;1905149;75;21157;-83
2022/03/02 05:29:52;;;;;;;17.35;10.68;;;3.80;99.90;;;;;;1908462;73;21121;-84
2022/03/02 05:32:43;;;;;;;14.20;9.70;;;3.90;99.90;;;;;;1905156;75;21098;-83
2022/03/02 05:35:35;;;;;;;15.70;9.43;;;3.90;99.90;;;;;;1905310;75;21130;-85
2022/03/02 05:38:27;;;;;;;15.98;9.38;;;3.90;99.90;;;;;;1908334;74;21107;-84
2022/03/02 05:41:18;;;;;;;14.50;9.93;;;3.80;99.90;;;;;;1927729;74;21103;-84
2022/03/02 05:44:11;;;;;;;15.83;10.75;;;3.80;99.90;;;;;;1907248;74;21060;-84
2022/03/02 05:49:45;;;;;;;16.75;11.20;;;3.80;99.90;;;;;;1935448;72;22166;-85
2022/03/02 05:52:54;;;;;;;18.05;10.82;;;3.70;99.90;;;;;;1918496;73;21077;-84
2022/03/02 05:55:46;;;;;;;15.20;10.32;;;3.60;99.90;;;;;;1892843;75;21111;-84
2022/03/02 05:58:38;;;;;;;16.07;10.53;;;3.60;99.90;;;;;;1874194;75;21109;-85
2022/03/02 06:01:30;;;;;;;16.65;10.72;;;3.50;99.90;;;;;;1890083;75;21127;-84
2022/03/02 06:04:29;;;;;;;15.20;10.98;;;3.50;99.90;;;;;;1891050;75;21594;-85
2022/03/02 06:31:25;;;;;;;15.25;10.25;;;3.50;99.90;;;;;;1998426;71;22129;-84
2022/03/02 06:37:16;;;;;;;16.87;10.35;;;3.60;99.90;;;;;;1946451;72;22217;-85
2022/03/02 06:40:26;;;;;;;14.80;10.45;;;3.60;99.90;;;;;;1895886;75;21187;-90
2022/03/02 06:46:13;;;;;;;17.80;11.00;;;3.70;99.90;;;;;;1943425;72;22209;-92
2022/03/02 06:52:10;;;;;;;17.75;11.57;;;3.80;99.90;;;;;;1974531;72;22142;-90
2022/03/02 06:55:20;;;;;;;18.37;12.50;;;3.90;99.90;;;;;;1917178;75;21177;-89
2022/03/02 06:58:14;;;;;;;18.87;12.13;;;4.00;99.90;;;;;;1917335;75;21090;-89
2022/03/02 07:01:09;;;;;;;14.73;11.48;;;4.10;99.90;;;;;;1917696;75;21107;-78
2022/03/02 07:04:02;;;;;;;14.93;10.70;;;4.10;99.90;;;;;;1948589;73;21090;-76
2022/03/02 07:06:55;;;;;;;14.60;10.23;;;4.10;99.90;;;;;;1924055;73;21058;-76
2022/03/02 07:09:48;;;;;;;16.23;10.48;;;4.10;99.90;;;;;;1916806;75;21146;-75
2022/03/02 07:15:18;;;;;;;17.12;9.80;;;4.20;99.90;;;;;;1966842;72;22260;-76
2022/03/02 07:18:29;;;;;;;16.00;9.83;;;4.20;99.90;;;;;;1930148;73;21092;-76
2022/03/02 07:21:23;;;;;;;13.93;9.85;;;4.10;99.90;;;;;;1946697;73;21569;-75
2022/03/02 07:24:17;;;;;;;17.05;9.98;;;4.20;99.90;;;;;;1927664;73;21167;-75
2022/03/02 07:29:50;;;;;;;14.15;9.80;;;4.30;99.90;;;;;;1938462;72;22205;-75
2022/03/02 07:33:02;;;;;;;12.68;8.95;;;4.30;99.90;;;;;;1902173;74;21187;-79
2022/03/02 07:35:59;;;;;;;16.02;9.75;;;4.40;99.90;;;;;;1895642;75;21091;-78
2022/03/02 07:38:51;;;;;;;14.30;9.55;;;4.40;99.90;;;;;;1892307;75;21072;-78
2022/03/02 07:41:42;;;;;;;15.85;9.58;;;4.50;99.90;;;;;;1897047;75;21522;-78
2022/03/02 07:47:19;;;;;;;14.95;9.88;;;4.50;99.90;;;;;;1937260;72;22197;-79
2022/03/02 07:50:30;;;;;;;17.60;11.08;;;4.50;99.90;;;;;;1912800;75;21113;-79
2022/03/02 07:56:02;;;;;;;18.45;11.12;;;4.70;99.90;;;;;;1954475;72;22170;-80
2022/03/02 08:02:04;;;;;;;15.80;10.95;;;4.90;99.90;;;;;;1951662;72;22062;-80
2022/03/02 08:05:15;;;;;;;14.65;9.65;;;5.00;99.90;;;;;;1908072;75;21102;-79
2022/03/02 08:10:55;;;;;;;17.25;10.85;;;5.10;99.90;;;;;;1955508;72;22727;-80
2022/03/02 08:14:06;;;;;;;16.17;9.73;;;5.10;99.90;;;;;;1918794;74;21084;-80
2022/03/02 08:16:58;;;;;;;17.80;9.88;;;5.20;99.90;;;;;;1915851;75;21106;-80
2022/03/02 08:19:50;;;;;;;16.37;9.75;;;5.30;99.90;;;;;;1917974;74;21176;-80
2022/03/02 08:22:46;;;;;;;18.23;10.30;;;5.40;99.90;;;;;;1896434;75;21116;-79
2022/03/02 08:25:39;;;;;;;14.53;10.18;;;5.50;99.90;;;;;;1901259;75;21221;-80
2022/03/02 08:28:34;;;;;;;14.95;10.60;;;5.50;99.90;;;;;;1913987;75;21127;-80
2022/03/02 08:34:07;;;;;;;14.25;9.90;;;5.60;99.90;;;;;;1947708;72;22166;-80
2022/03/02 08:40:00;;;;;;;16.45;9.88;;;5.80;99.90;;;;;;1957623;72;22171;-79
2022/03/02 08:43:15;;;;;;;16.07;10.10;;;5.90;99.90;;;;;;1917155;75;21059;-79
2022/03/02 08:46:07;;;;;;;14.98;10.13;;;6.00;99.90;;;;;;1917477;75;21184;-79
2022/03/02 08:48:59;;;;;;;15.65;10.50;;;6.00;99.90;;;;;;1879569;76;21066;-79
2022/03/02 08:51:52;;;;;;;18.10;10.25;;;6.10;99.90;;;;;;1903127;75;21091;-79
2022/03/02 08:57:24;;;;;;;16.15;9.95;;;6.30;99.90;;;;;;1952396;72;22207;-79
2022/03/02 09:00:34;;;;;;;15.70;10.72;;;6.40;99.90;;;;;;1907177;75;21086;-78
2022/03/02 09:03:27;;;;;;;19.80;12.85;;;6.40;99.90;;;;;;1906271;75;21047;-79
2022/03/02 09:06:21;;;;;;;15.08;10.98;;;6.50;99.90;;;;;;1901402;75;21043;-80
2022/03/02 09:09:13;;;;;;;16.87;10.23;;;6.60;99.90;;;;;;1899103;75;21132;-79
2022/03/02 09:12:08;;;;;;;13.80;10.03;;;6.70;99.90;;;;;;1906992;75;21180;-79
2022/03/02 09:15:01;;;;;;;15.05;10.63;;;6.80;99.90;;;;;;1889024;75;21097;-78
2022/03/02 09:17:53;;;;;;;14.83;11.10;;;6.90;99.90;;;;;;1896238;75;21096;-81
2022/03/02 09:20:46;;;;;;;15.60;10.78;;;7.00;99.90;;;;;;1900774;75;21155;-79
2022/03/02 09:26:32;;;;;;;16.60;11.12;;;7.10;99.90;;;;;;1938413;72;22230;-79
2022/03/02 09:29:44;;;;;;;15.38;10.53;;;7.20;99.90;;;;;;1900971;75;21105;-79
2022/03/02 09:32:38;;;;;;;16.10;11.00;;;7.30;99.90;;;;;;1905182;75;21099;-79
2022/03/02 09:35:30;;;;;;;17.52;11.95;;;7.40;99.90;;;;;;1886877;75;21064;-79
2022/03/02 09:41:09;;;;;;;20.00;11.45;;;7.60;99.90;;;;;;1945787;72;22149;-79
2022/03/02 09:44:21;;;;;;;17.32;11.18;;;7.70;99.90;;;;;;1946023;73;21043;-79
2022/03/02 09:49:58;;;;;;;21.27;10.93;;;7.90;99.90;;;;;;1950662;72;22201;-79
2022/03/02 09:55:48;;;;;;;19.80;9.80;;;8.00;99.90;;;;;;1953740;72;22173;-79
2022/03/02 10:01:40;;;;;;;16.35;10.95;;;8.20;99.90;;;;;;1942045;72;22341;-79
2022/03/02 10:04:52;;;;;;;17.55;10.18;;;8.10;99.90;;;;;;1917842;75;21074;-80
2022/03/02 10:10:28;;;;;;;19.65;10.90;;;8.20;99.90;;;;;;1926546;72;22358;-80
2022/03/02 10:13:38;;;;;;;15.10;10.40;;;8.30;99.90;;;;;;1904591;75;21043;-78
2022/03/02 10:16:31;;;;;;;14.90;10.63;;;8.40;99.90;;;;;;1892426;75;21064;-80
2022/03/02 10:19:26;;;;;;;16.57;10.88;;;8.40;99.90;;;;;;1906716;75;21050;-78
2022/03/02 10:22:31;;;;;;;15.88;10.70;;;8.50;99.90;;;;;;1900448;75;21051;-79
2022/03/02 10:25:26;;;;;;;14.40;10.30;;;8.60;99.90;;;;;;1898205;75;21088;-78
2022/03/02 10:28:20;;;;;;;14.20;10.50;;;8.70;99.90;;;;;;1901185;75;21047;-79
2022/03/02 10:31:47;;;;;;;15.15;10.55;;;8.90;99.90;;;;;;1891569;75;21132;-79
2022/03/02 10:34:41;;;;;;;16.82;10.68;;;9.00;99.90;;;;;;1901304;75;21964;-79
2022/03/02 10:40:16;;;;;;;14.05;9.50;;;9.10;99.90;;;;;;1937769;72;22586;-80
2022/03/02 10:43:29;;;;;;;12.70;8.40;;;9.20;99.90;;;;;;1885163;75;21153;-79
2022/03/02 10:46:22;;;;;;;12.88;8.83;;;9.30;99.90;;;;;;1897630;75;21109;-79
2022/03/02 10:51:59;;;;;;;15.05;8.53;;;9.60;99.90;;;;;;1952395;72;22139;-78
2022/03/02 10:55:12;;;;;;;13.15;8.90;;;9.70;99.90;;;;;;1917807;75;21094;-79
2022/03/02 11:00:44;;;;;;;11.60;8.65;;;9.90;99.90;;;;;;1942408;72;22268;-80
2022/03/02 11:03:55;;;;;;;11.28;8.15;;;10.00;99.90;;;;;;1917468;75;21175;-78
2022/03/02 11:06:47;;;;;;;11.78;7.60;;;10.10;99.90;;;;;;1917576;75;21059;-79
2022/03/02 11:12:20;;;;;;;12.47;7.37;;;10.30;99.90;;;;;;1973599;72;22198;-80
2022/03/02 11:18:19;;;;;;;13.13;7.08;;;10.40;99.90;;;;;;1946685;72;22667;-80
2022/03/02 11:21:35;;;;;;;17.50;7.03;;;10.60;99.90;;;;;;1917435;75;21088;-79
2022/03/02 11:24:27;;;;;;;13.18;7.87;;;10.60;99.90;;;;;;1933822;73;21099;-79
2022/03/02 11:30:12;;;;;;;16.15;8.65;;;10.70;99.90;;;;;;1945878;72;22231;-89
2022/03/02 11:33:36;;;;;;;11.73;8.03;;;10.70;99.90;;;;;;1896253;75;21135;-87
2022/03/02 11:36:33;;;;;;;11.33;8.13;;;10.70;99.90;;;;;;1892825;75;21098;-89
2022/03/02 11:39:26;;;;;;;13.95;8.40;;;10.80;99.90;;;;;;1902234;75;21149;-87
2022/03/02 11:45:28;;;;;;;18.27;8.65;;;10.90;99.90;;;;;;1991235;71;22091;-89
2022/03/02 11:48:41;;;;;;;15.90;8.70;;;11.20;99.90;;;;;;2032252;70;21594;-87
2022/03/02 11:51:36;;;;;;;11.40;6.22;;;11.50;99.90;;;;;;2014637;70;21484;-86
2022/03/02 11:57:07;;;;;;;11.45;6.70;;;11.80;99.90;;;;;;1932300;72;22289;-89
2022/03/02 12:00:19;;;;;;;10.40;6.72;;;11.90;99.90;;;;;;1894317;75;21069;-88
2022/03/02 12:03:11;;;;;;;10.90;6.90;;;11.90;99.90;;;;;;1884720;76;21062;-88
2022/03/02 12:06:07;;;;;;;7.75;6.62;;;11.90;99.90;;;;;;1898497;75;21542;-87
2022/03/02 12:24:41;;;;;;;9.70;5.40;;;12.40;99.90;;;;;;1951168;72;22259;-88
2022/03/02 12:27:58;;;;;;;9.10;4.87;;;12.70;99.90;;;;;;1906977;75;21486;-88
2022/03/02 12:30:50;;;;;;;8.73;4.58;;;12.80;99.90;;;;;;1904682;75;21072;-87
2022/03/02 12:33:41;;;;;;;8.63;5.10;;;12.70;99.90;;;;;;1899357;75;21051;-87
2022/03/02 12:36:35;;;;;;;8.80;4.40;;;12.80;99.90;;;;;;1895888;75;21125;-87
2022/03/02 12:39:28;;;;;;;7.10;3.98;;;12.90;99.90;;;;;;1893032;75;21188;-88
2022/03/02 12:42:20;;;;;;;6.37;4.30;;;12.90;99.90;;;;;;1881259;76;21090;-87
2022/03/02 12:45:13;;;;;;;10.60;4.40;;;12.80;99.90;;;;;;1902562;75;21596;-88
2022/03/02 12:48:06;;;;;;;13.88;4.83;;;12.90;99.90;;;;;;1904728;75;21055;-87
2022/03/02 12:50:58;;;;;;;8.03;4.03;;;13.00;99.90;;;;;;1906966;75;21138;-88
2022/03/02 12:53:49;;;;;;;8.15;3.47;;;13.20;99.90;;;;;;1887765;75;21117;-88
2022/03/02 12:56:41;;;;;;;5.17;3.72;;;13.30;99.90;;;;;;1897743;75;21121;-87
2022/03/02 12:59:33;;;;;;;5.72;3.65;;;13.50;99.90;;;;;;1899393;75;21132;-87
2022/03/02 13:02:27;;;;;;;9.50;4.10;;;13.50;99.90;;;;;;1895712;75;21185;-87
2022/03/02 13:05:22;;;;;;;4.67;3.45;;;13.30;99.90;;;;;;1889847;75;21064;-87
2022/03/02 13:08:26;;;;;;;6.60;3.52;;;13.60;99.90;;;;;;1885016;75;21145;-88
2022/03/02 13:11:28;;;;;;;7.15;3.50;;;13.70;99.90;;;;;;1884808;76;21056;-87
2022/03/02 13:14:37;;;;;;;6.75;3.25;;;13.80;99.90;;;;;;1906022;74;21047;-87
2022/03/02 13:17:29;;;;;;;4.90;2.98;;;13.80;99.90;;;;;;1921568;74;21090;-87
2022/03/02 13:20:23;;;;;;;7.15;3.10;;;13.70;99.90;;;;;;1906744;75;21168;-86
2022/03/02 13:23:16;;;;;;;4.30;2.60;;;13.60;99.90;;;;;;1907739;75;21175;-86
2022/03/02 13:26:15;;;;;;;3.77;2.95;;;13.70;99.90;;;;;;1916339;74;21140;-87
2022/03/02 13:31:57;;;;;;;6.12;3.05;;;13.50;99.90;;;;;;1957866;72;22241;-87
2022/03/02 13:35:09;;;;;;;4.97;2.67;;;13.50;99.90;;;;;;1898439;75;21084;-89
2022/03/02 13:38:10;;;;;;;5.45;2.77;;;13.60;99.90;;;;;;1895071;75;21055;-87
2022/03/02 13:41:01;;;;;;;4.12;2.60;;;13.60;99.90;;;;;;1913747;75;21051;-87
2022/03/02 13:43:56;;;;;;;8.70;2.75;;;13.70;99.90;;;;;;1896631;75;21114;-88
2022/03/02 13:46:49;;;;;;;4.65;2.80;;;13.70;99.90;;;;;;1902631;75;21585;-88
2022/03/02 13:50:05;;;;;;;4.95;2.50;;;13.50;99.90;;;;;;1897683;75;21187;-88
2022/03/02 13:53:02;;;;;;;4.28;2.40;;;13.50;99.90;;;;;;1897567;75;21105;-87
2022/03/02 13:55:56;;;;;;;3.55;2.60;;;13.90;99.90;;;;;;1886828;75;21529;-87
2022/03/02 13:58:50;;;;;;;6.80;2.47;;;13.90;99.90;;;;;;1885024;76;21954;-88
2022/03/02 14:01:42;;;;;;;3.60;2.55;;;14.10;99.90;;;;;;1906494;75;21051;-87
2022/03/02 14:04:35;;;;;;;4.87;2.30;;;14.00;99.90;;;;;;1884702;75;21048;-87
2022/03/02 14:10:12;;;;;;;6.65;2.17;;;14.00;99.90;;;;;;1958492;72;22202;-88
2022/03/02 14:13:33;;;;;;;4.17;2.25;;;14.10;99.90;;;;;;1895600;75;21129;-89
2022/03/02 14:16:25;;;;;;;4.67;2.25;;;14.00;99.90;;;;;;1895833;75;21146;-88
2022/03/02 14:19:16;;;;;;;4.55;2.08;;;14.00;99.90;;;;;;1917616;75;21055;-87
2022/03/02 14:22:11;;;;;;;4.20;2.08;;;14.10;99.90;;;;;;1898892;75;21055;-87
2022/03/02 14:25:06;;;;;;;4.37;2.10;;;13.90;99.90;;;;;;1907585;75;21123;-90
2022/03/02 14:27:59;;;;;;;5.95;2.30;;;14.10;99.90;;;;;;1907170;75;21142;-87
2022/03/02 14:30:54;;;;;;;5.67;1.87;;;14.10;99.90;;;;;;1906951;75;21078;-90
2022/03/02 14:33:45;;;;;;;3.75;1.80;;;14.10;99.90;;;;;;1884668;75;21125;-87
2022/03/02 14:36:37;;;;;;;5.53;2.00;;;14.20;99.90;;;;;;1897945;75;21055;-87
2022/03/02 14:39:29;;;;;;;4.70;1.95;;;14.40;99.90;;;;;;1887076;75;21120;-87
2022/03/02 14:42:20;;;;;;;3.77;2.02;;;14.70;99.90;;;;;;1884544;75;21070;-86
2022/03/02 14:48:07;;;;;;;4.50;2.42;;;14.50;99.90;;;;;;1955422;72;22142;-88
2022/03/02 14:51:17;;;;;;;4.42;1.85;;;14.40;99.90;;;;;;1898427;75;21055;-89
2022/03/02 14:54:14;;;;;;;5.62;1.82;;;14.30;99.90;;;;;;1895446;75;21442;-88
2022/03/02 14:57:08;;;;;;;5.53;2.17;;;14.50;99.90;;;;;;1895584;75;21129;-87
2022/03/02 14:59:59;;;;;;;2.72;1.65;;;14.50;99.90;;;;;;1896137;75;21124;-87
2022/03/02 15:02:52;;;;;;;4.62;1.90;;;14.30;99.90;;;;;;1901438;75;21050;-87
2022/03/02 15:08:50;;;;;;;4.30;2.33;;;13.90;99.90;;;;;;1925935;72;39212;-86
2022/03/02 15:12:05;;;;;;;4.87;1.70;;;13.90;99.90;;;;;;1897095;74;21128;-88
2022/03/02 15:15:11;;;;;;;4.78;1.98;;;13.70;99.90;;;;;;1923503;74;21510;-87
2022/03/02 15:18:10;;;;;;;3.47;1.90;;;13.50;99.90;;;;;;1921552;74;21518;-88
2022/03/02 15:21:02;;;;;;;3.85;1.80;;;13.50;99.90;;;;;;1898255;75;21525;-88
2022/03/02 15:23:53;;;;;;;4.78;2.08;;;13.10;99.90;;;;;;1884840;76;21102;-87
2022/03/02 15:26:50;;;;;;;5.17;2.00;;;13.00;99.90;;;;;;1920791;74;21063;-88
2022/03/02 15:29:42;;;;;;;2.90;1.85;;;13.00;99.90;;;;;;1895132;75;21066;-89
2022/03/02 15:32:38;;;;;;;3.98;1.62;;;13.10;99.90;;;;;;1895774;75;21070;-89
2022/03/02 15:35:32;;;;;;;5.37;2.05;;;13.00;99.90;;;;;;1909235;75;21114;-88
2022/03/02 15:38:24;;;;;;;6.22;2.10;;;13.00;99.90;;;;;;1884611;76;21059;-87
2022/03/02 15:41:23;;;;;;;4.05;2.08;;;13.10;99.90;;;;;;1895325;74;21062;-88
2022/03/02 15:44:18;;;;;;;4.95;2.12;;;13.00;99.90;;;;;;1919738;74;21090;-88
2022/03/02 15:47:09;;;;;;;5.17;2.30;;;12.90;99.90;;;;;;1919146;74;21471;-88
2022/03/02 15:50:01;;;;;;;4.40;2.22;;;13.00;99.90;;;;;;1910950;75;21055;-89
2022/03/02 15:52:58;;;;;;;4.67;2.35;;;12.80;99.90;;;;;;1884890;76;21055;-88
2022/03/02 15:55:57;;;;;;;9.10;2.42;;;12.70;99.90;;;;;;1912105;74;21537;-89
2022/03/02 15:58:50;;;;;;;4.72;2.30;;;12.60;99.90;;;;;;1907179;75;21098;-88
2022/03/02 16:01:43;;;;;;;5.22;2.37;;;12.80;99.90;;;;;;1910982;74;21104;-80
2022/03/02 16:04:36;;;;;;;4.60;2.27;;;12.80;99.90;;;;;;1919183;74;21061;-79
2022/03/02 16:07:31;;;;;;;5.83;2.42;;;12.60;99.90;;;;;;1897099;75;21051;-79
2022/03/02 16:10:22;;;;;;;7.70;2.60;;;12.50;99.90;;;;;;1893209;75;21121;-79
2022/03/02 16:13:16;;;;;;;4.85;2.35;;;12.40;99.90;;;;;;1912435;75;21066;-79
2022/03/02 16:16:14;;;;;;;6.97;2.42;;;12.30;99.90;;;;;;1903841;75;21090;-79
2022/03/02 16:19:08;;;;;;;6.22;2.98;;;12.30;99.90;;;;;;1901608;75;21543;-78
2022/03/02 16:22:02;;;;;;;6.15;2.65;;;12.20;99.90;;;;;;1897497;74;21058;-79
2022/03/02 16:24:54;;;;;;;5.05;2.47;;;12.20;99.90;;;;;;1906040;74;21173;-80
2022/03/02 16:27:56;;;;;;;4.62;2.35;;;12.30;99.90;;;;;;1905668;74;21125;-81
2022/03/02 16:30:51;;;;;;;4.50;2.50;;;12.20;99.90;;;;;;1898390;74;21126;-79
2022/03/02 16:36:27;;;;;;;5.58;2.52;;;12.10;99.90;;;;;;1943033;72;22197;-80
2022/03/02 16:39:38;;;;;;;4.55;2.70;;;12.10;99.90;;;;;;1940554;73;21097;-79
2022/03/02 16:42:32;;;;;;;3.67;2.40;;;12.00;99.90;;;;;;1917597;75;21043;-79
2022/03/02 16:45:24;;;;;;;4.58;2.30;;;12.00;99.90;;;;;;1917451;75;21526;-79
2022/03/02 16:48:17;;;;;;;7.00;2.92;;;12.00;99.90;;;;;;1917373;75;21164;-79
2022/03/02 16:51:09;;;;;;;5.53;2.60;;;12.00;99.90;;;;;;1917529;75;21127;-87
2022/03/02 16:54:01;;;;;;;6.37;2.80;;;11.80;99.90;;;;;;1917544;75;21059;-88
2022/03/02 16:56:54;;;;;;;6.35;2.80;;;11.90;99.90;;;;;;1918123;73;21079;-87
2022/03/02 16:59:46;;;;;;;8.83;3.00;;;11.80;99.90;;;;;;1933180;73;21114;-86
2022/03/02 17:02:39;;;;;;;5.20;2.70;;;11.90;99.90;;;;;;1917440;75;21098;-88
2022/03/02 17:05:31;;;;;;;5.12;2.70;;;11.80;99.90;;;;;;1917654;75;21181;-88
2022/03/02 17:08:24;;;;;;;4.95;2.62;;;11.70;99.90;;;;;;1940271;73;21155;-87
2022/03/02 17:11:16;;;;;;;4.10;2.75;;;11.70;99.90;;;;;;1917618;75;21569;-89
2022/03/02 17:14:11;;;;;;;6.03;2.60;;;11.70;99.90;;;;;;1917604;75;21061;-88
2022/03/02 17:17:03;;;;;;;5.40;3.00;;;11.60;99.90;;;;;;1917185;75;21546;-87
2022/03/02 17:19:56;;;;;;;7.75;2.83;;;11.60;99.90;;;;;;1922175;73;21122;-87
2022/03/02 17:22:48;;;;;;;7.30;2.72;;;11.50;99.90;;;;;;1929565;73;21125;-88
2022/03/02 17:25:39;;;;;;;4.50;2.75;;;11.40;99.90;;;;;;1917253;75;21161;-87
2022/03/02 17:28:30;;;;;;;7.05;2.83;;;11.40;99.90;;;;;;1917465;75;21070;-88
2022/03/02 17:31:22;;;;;;;3.55;2.52;;;11.40;99.90;;;;;;1917498;73;21121;-87
2022/03/02 17:36:56;;;;;;;4.55;2.47;;;11.50;99.90;;;;;;1963297;72;22307;-88
2022/03/02 17:40:10;;;;;;;4.87;2.92;;;11.50;99.90;;;;;;1920362;74;21094;-88
2022/03/02 17:43:02;;;;;;;6.10;2.87;;;11.40;99.90;;;;;;1916228;74;21114;-87
2022/03/02 17:45:55;;;;;;;4.90;2.80;;;11.40;99.90;;;;;;1911162;74;21575;-87
2022/03/02 17:48:47;;;;;;;6.53;2.65;;;11.30;99.90;;;;;;1905635;75;21113;-87
2022/03/02 17:51:41;;;;;;;5.08;2.90;;;11.30;99.90;;;;;;1905434;75;21153;-87
2022/03/02 17:54:33;;;;;;;6.50;2.83;;;11.30;99.90;;;;;;1905897;75;21048;-87
2022/03/02 17:57:25;;;;;;;6.28;3.00;;;11.30;99.90;;;;;;1906019;75;21134;-87
2022/03/02 18:03:37;;;;;;;5.55;3.15;;;11.20;99.90;;;;;;1942359;72;22724;-79
2022/03/02 18:06:48;;;;;;;5.58;3.20;;;11.10;99.90;;;;;;1894863;75;21113;-79
2022/03/02 18:09:40;;;;;;;6.42;3.40;;;11.10;99.90;;;;;;1856584;77;21544;-79
2022/03/02 18:12:33;;;;;;;7.15;3.40;;;11.10;99.90;;;;;;1887721;75;21162;-78
2022/03/02 18:15:25;;;;;;;5.50;3.02;;;11.10;99.90;;;;;;1873609;75;21214;-79